Terminal Aerodrome Forecast
Issued by NWS

Home | Current Version | Previous Version | Text Only | Print | Product List | Glossary On
Versions: 1 2 3 4 5 6 7 8 9 10 11 12 13 14 15
000
FTAK31 PAJN 031400 AAA
TAFAJN
TAF AMD
PAJN 031442Z 0315/0412 10012G17KT P6SM -RA SCT025 OVC050
     FM031600 10010KT 6SM -RA BR BKN025 OVC040
     FM032100 12008KT P6SM -RA SCT030 OVC050
     FM040400 10007KT P6SM VCSH SCT020 OVC040=

USA.gov is the U.S. government's official web portal to all federal, state and local government web resources and services.